createdAt,value
2018-03-16T09:24:26.039Z,45
2018-03-16T09:25:34.899Z,45
2018-03-16T09:26:43.658Z,50
2018-03-16T09:27:52.523Z,50
2018-03-16T09:29:01.327Z,50
2018-03-16T09:30:10.277Z,50
2018-03-16T09:31:19.236Z,50
2018-03-16T09:32:28.184Z,50
2018-03-16T09:33:37.126Z,55
2018-03-16T09:34:46.100Z,55
2018-03-16T09:37:24.602Z,50
2018-03-16T09:38:33.475Z,50
2018-03-16T09:39:42.356Z,50
2018-03-16T09:40:51.294Z,45
2018-03-16T09:42:00.304Z,45
2018-03-16T09:43:09.242Z,45
2018-03-16T09:44:18.096Z,45
2018-03-16T09:45:26.976Z,50
2018-03-16T09:46:35.851Z,50
2018-03-16T09:47:44.733Z,45
2018-03-16T09:48:53.604Z,45
2018-03-16T09:50:02.478Z,45
2018-03-16T09:51:11.357Z,45
2018-03-16T09:52:20.235Z,40
2018-03-16T09:53:29.112Z,40
2018-03-16T09:54:38.267Z,45
2018-03-16T09:55:47.144Z,45
2018-03-16T09:56:56.135Z,45
2018-03-16T09:58:05.462Z,45
2018-03-16T09:59:14.369Z,45
2018-03-16T10:00:23.275Z,45
2018-03-16T10:01:32.178Z,45
2018-03-16T10:02:41.339Z,45
2018-03-16T10:03:50.294Z,45
2018-03-16T10:04:59.178Z,45
2018-03-16T10:06:08.054Z,45
2018-03-16T10:07:16.937Z,50
2018-03-16T10:08:25.811Z,50
2018-03-16T10:09:34.692Z,50
2018-03-16T10:10:43.567Z,50
2018-03-16T10:11:52.445Z,50
2018-03-16T10:13:01.335Z,50
2018-03-16T10:14:10.209Z,50
2018-03-16T10:15:19.091Z,50
2018-03-16T10:16:27.958Z,45
2018-03-16T10:17:36.844Z,50
2018-03-16T10:18:45.719Z,50
2018-03-16T10:19:54.602Z,50
2018-03-16T10:21:03.469Z,55
2018-03-16T10:22:12.357Z,55
2018-03-16T10:23:21.236Z,55
2018-03-16T10:24:30.116Z,55
2018-03-16T10:25:39.057Z,55
2018-03-16T10:26:48.151Z,55
2018-03-16T10:27:57.301Z,55
2018-03-16T10:29:06.467Z,55
2018-03-16T10:30:15.345Z,60
2018-03-16T10:31:24.229Z,60
2018-03-16T10:32:33.118Z,60
2018-03-16T10:33:41.990Z,60
2018-03-16T10:34:50.873Z,60
2018-03-16T10:35:59.761Z,60
2018-03-16T10:37:08.683Z,60
2018-03-16T10:38:17.521Z,65
2018-03-16T10:39:26.400Z,60
2018-03-16T10:40:35.277Z,60
2018-03-16T10:41:44.160Z,60
2018-03-16T10:42:53.037Z,60
2018-03-16T10:44:01.919Z,60
2018-03-16T10:45:10.802Z,55
2018-03-16T10:46:19.951Z,55
2018-03-16T10:47:28.823Z,55
2018-03-16T10:48:37.706Z,55
2018-03-16T10:49:46.585Z,55
2018-03-16T10:50:55.744Z,55
2018-03-16T10:52:04.632Z,60
2018-03-16T10:53:13.506Z,60
2018-03-16T10:54:22.397Z,60
2018-03-16T10:55:31.263Z,60
2018-03-16T10:56:40.146Z,60
2018-03-16T10:57:49.018Z,55
2018-03-16T10:58:57.897Z,55
2018-03-16T11:00:07.049Z,55
2018-03-16T11:01:15.936Z,55
2018-03-16T11:02:24.814Z,55
2018-03-16T11:03:33.685Z,55
2018-03-16T11:04:42.561Z,55
2018-03-16T11:05:51.448Z,55
2018-03-16T11:07:00.327Z,55
2018-03-16T11:08:09.199Z,60
2018-03-16T11:09:18.099Z,60
2018-03-16T11:10:26.954Z,60
2018-03-16T11:11:35.838Z,60
2018-03-16T11:12:44.721Z,60
2018-03-16T11:13:53.601Z,60
2018-03-16T11:15:02.477Z,60
2018-03-16T11:16:11.634Z,55
2018-03-16T11:17:20.557Z,55
2018-03-16T11:18:29.402Z,55
2018-03-16T11:19:38.298Z,55
2018-03-16T11:20:47.178Z,55
2018-03-16T11:21:56.048Z,55
2018-03-16T11:23:04.929Z,55
2018-03-16T11:24:13.807Z,55
2018-03-16T11:25:22.685Z,50
2018-03-16T11:26:31.561Z,55
2018-03-16T11:27:40.440Z,50
2018-03-16T11:28:49.598Z,55
2018-03-16T11:29:58.479Z,55
2018-03-16T11:31:07.632Z,60
2018-03-16T11:32:16.511Z,60
2018-03-16T11:33:25.387Z,55
2018-03-16T11:34:34.275Z,60
2018-03-16T11:35:43.615Z,60
2018-03-16T11:36:52.554Z,65
2018-03-16T11:38:01.460Z,70
2018-03-16T11:39:10.372Z,70
2018-03-16T11:40:19.241Z,75
2018-03-16T11:41:28.131Z,80
2018-03-16T11:42:37.288Z,80
2018-03-16T11:43:46.723Z,80
2018-03-16T11:44:55.603Z,80
2018-03-16T11:46:04.481Z,80
2018-03-16T11:47:13.361Z,80
2018-03-16T11:48:22.235Z,80
2018-03-16T11:49:31.111Z,75
2018-03-16T11:50:40.268Z,75
2018-03-16T11:51:49.152Z,70
2018-03-16T11:52:58.317Z,70
2018-03-16T11:54:07.240Z,65
